Time;durP1;ratioP1;P1;durP2;ratioP2;P2;SDS_P1;SDS_P2;PMS_P1;PMS_P2;Temp;Humidity;BMP_temperature;BMP_pressure;BME280_temperature;BME280_humidity;BME280_pressure;Samples;Min_cycle;Max_cycle;Signal;HPM_P1;HPM_P2
2023/05/15 00:02:16;;;;;;;;;;;;;;;11.90;89.84;101447.22;5045806;28;1890;-76
2023/05/15 00:04:41;;;;;;;;;;;;;;;11.87;89.86;101443.09;5067536;28;1201;-76
2023/05/15 00:07:07;;;;;;;;;;;;;;;11.88;89.94;101449.13;5062381;28;1244;-76
2023/05/15 00:09:32;;;;;;;;;;;;;;;11.87;90.67;101442.25;5061829;28;1212;-76
2023/05/15 00:11:57;;;;;;;;;;;;;;;11.85;90.02;101434.56;5047987;28;1317;-76
2023/05/15 00:14:22;;;;;;;;;;;;;;;11.88;90.17;101429.16;5065260;28;1217;-76
2023/05/15 00:16:48;;;;;;;;;;;;;;;11.88;90.37;101428.34;5040767;28;1230;-76
2023/05/15 00:19:13;;;;;;;;;;;;;;;11.86;91.77;101425.00;5061763;28;1073;-77
2023/05/15 00:21:38;;;;;;;;;;;;;;;11.84;90.52;101419.13;5039755;28;1902;-76
2023/05/15 00:24:04;;;;;;;;;;;;;;;11.78;91.22;101409.16;5060192;28;1486;-77
2023/05/15 00:26:29;;;;;;;;;;;;;;;11.77;90.38;101417.91;5061878;28;1321;-76
2023/05/15 00:28:55;;;;;;;;;;;;;;;11.76;91.04;101416.25;5051307;28;1349;-76
2023/05/15 00:31:20;;;;;;;;;;;;;;;11.73;90.80;101421.69;5044424;28;1208;-77
2023/05/15 00:33:46;;;;;;;;;;;;;;;11.73;91.06;101422.50;5056375;28;1252;-76
2023/05/15 00:36:11;;;;;;;;;;;;;;;11.74;91.33;101426.75;5048726;28;1331;-77
2023/05/15 00:38:37;;;;;;;;;;;;;;;11.73;90.85;101419.09;5067458;28;1714;-76
2023/05/15 00:41:03;;;;;;;;;;;;;;;11.69;90.13;101423.69;5061840;28;1972;-77
2023/05/15 00:43:29;;;;;;;;;;;;;;;11.65;90.43;101423.09;5063123;28;1202;-76
2023/05/15 00:45:54;;;;;;;;;;;;;;;11.64;91.04;101420.59;5066721;28;1145;-76
2023/05/15 00:48:21;;;;;;;;;;;;;;;11.65;90.82;101425.69;5063111;28;1461;-76
2023/05/15 00:50:49;;;;;;;;;;;;;;;11.70;90.99;101420.97;5059024;28;1294;-76
2023/05/15 00:53:14;;;;;;;;;;;;;;;11.61;91.20;101426.88;5065283;28;1144;-76
2023/05/15 00:55:41;;;;;;;;;;;;;;;11.62;90.96;101428.50;5059007;28;1078;-76
2023/05/15 00:58:06;;;;;;;;;;;;;;;11.61;90.66;101420.84;5058143;28;1060;-76
2023/05/15 01:00:32;;;;;;;;;;;;;;;11.58;91.16;101427.09;5041443;28;1152;-76
2023/05/15 01:02:57;;;;;;;;;;;;;;;11.60;90.89;101420.03;5059601;28;1882;-76
2023/05/15 01:05:23;;;;;;;;;;;;;;;11.60;91.45;101417.44;5056393;28;1328;-76
2023/05/15 01:07:55;;;;;;;;;;;;;;;11.60;90.97;101412.22;5058398;28;1244;-76
2023/05/15 01:10:20;;;;;;;;;;;;;;;11.61;91.23;101415.66;5059263;28;1104;-76
2023/05/15 01:12:46;;;;;;;;;;;;;;;11.60;91.09;101414.00;5065357;28;1503;-76
2023/05/15 01:15:11;;;;;;;;;;;;;;;11.58;91.25;101406.31;5044633;28;1322;-76
2023/05/15 01:17:37;;;;;;;;;;;;;;;11.57;91.29;101415.03;5059302;28;1249;-76
2023/05/15 01:20:05;;;;;;;;;;;;;;;11.56;90.89;101412.56;5066088;28;1430;-76
2023/05/15 01:22:40;;;;;;;;;;;;;;;11.50;91.05;101406.06;5044347;28;1902;-76
2023/05/15 01:25:14;;;;;;;;;;;;;;;11.44;91.53;101403.94;5064144;28;1276;-76
2023/05/15 01:27:45;;;;;;;;;;;;;;;11.40;91.21;101403.34;5057707;28;1404;-76
2023/05/15 01:30:16;;;;;;;;;;;;;;;11.37;91.69;101398.38;5060742;28;1554;-76
2023/05/15 01:33:00;;;;;;;;;;;;;;;11.36;91.30;101396.75;5053309;28;1667;-76
2023/05/15 01:35:28;;;;;;;;;;;;;;;11.33;91.83;101396.97;5054745;28;1112;-76
2023/05/15 01:38:02;;;;;;;;;;;;;;;11.30;91.83;101386.81;5055871;28;1424;-76
2023/05/15 01:40:28;;;;;;;;;;;;;;;11.27;91.95;101386.22;5062334;28;1381;-76
2023/05/15 01:42:55;;;;;;;;;;;;;;;11.24;91.96;101381.25;5062804;28;1925;-77
2023/05/15 01:45:22;;;;;;;;;;;;;;;11.19;92.52;101398.97;5067511;28;1431;-76
2023/05/15 01:47:48;;;;;;;;;;;;;;;11.14;92.61;101394.94;5064517;28;1427;-76
2023/05/15 01:50:14;;;;;;;;;;;;;;;11.13;92.82;101400.25;5063271;28;1659;-76
2023/05/15 01:52:42;;;;;;;;;;;;;;;11.08;92.87;101398.00;5052103;28;1250;-76
2023/05/15 01:55:07;;;;;;;;;;;;;;;11.04;92.70;101388.75;5041906;28;1192;-76
2023/05/15 01:57:33;;;;;;;;;;;;;;;11.04;92.70;101391.38;5067309;28;1243;-76
2023/05/15 01:59:59;;;;;;;;;;;;;;;11.03;92.29;101394.06;5070477;28;1124;-76
2023/05/15 02:02:26;;;;;;;;;;;;;;;10.92;92.40;101381.06;5045643;28;1923;-76
2023/05/15 02:04:52;;;;;;;;;;;;;;;10.89;92.43;101385.53;5065365;28;1168;-75
2023/05/15 02:07:17;;;;;;;;;;;;;;;10.89;92.53;101374.31;5060746;28;1388;-76
2023/05/15 02:09:43;;;;;;;;;;;;;;;10.86;92.99;101371.97;5064505;28;1172;-76
2023/05/15 02:12:09;;;;;;;;;;;;;;;10.84;92.16;101379.06;5044360;28;1437;-75
2023/05/15 02:14:36;;;;;;;;;;;;;;;10.82;92.42;101380.91;5059482;28;1664;-76
2023/05/15 02:17:01;;;;;;;;;;;;;;;10.82;92.27;101384.34;5037652;28;1353;-76
2023/05/15 02:19:26;;;;;;;;;;;;;;;10.81;93.05;101379.25;5069091;28;1260;-76
2023/05/15 02:21:51;;;;;;;;;;;;;;;10.79;92.59;101371.59;5067534;28;1898;-76
2023/05/15 02:24:16;;;;;;;;;;;;;;;10.78;92.35;101380.34;5065656;28;1200;-76
2023/05/15 02:26:48;;;;;;;;;;;;;;;10.77;92.82;101380.41;5051295;28;1369;-76
2023/05/15 02:29:39;;;;;;;;;;;;;;;10.71;92.40;101379.09;5064646;28;971;-76
2023/05/15 02:32:11;;;;;;;;;;;;;;;10.69;92.48;101387.94;5029685;28;1354;-76
2023/05/15 02:34:40;;;;;;;;;;;;;;;10.67;92.58;101376.84;5045115;28;1508;-76
2023/05/15 02:37:09;;;;;;;;;;;;;;;10.67;93.29;101382.03;5045352;28;1172;-76
2023/05/15 02:39:35;;;;;;;;;;;;;;;10.68;93.38;101386.31;5062265;28;1163;-76
2023/05/15 02:42:01;;;;;;;;;;;;;;;10.67;93.51;101387.22;5067597;28;1973;-76
2023/05/15 02:44:26;;;;;;;;;;;;;;;10.63;93.50;101397.84;5044108;28;1895;-76
2023/05/15 02:46:52;;;;;;;;;;;;;;;10.62;93.25;101396.19;5067484;28;1530;-76
2023/05/15 02:49:18;;;;;;;;;;;;;;;10.57;93.76;101393.09;5067372;28;1416;-76
2023/05/15 02:51:43;;;;;;;;;;;;;;;10.53;93.58;101396.84;5065357;28;1534;-75
2023/05/15 02:54:09;;;;;;;;;;;;;;;10.51;93.15;101398.72;5063119;28;1157;-75
2023/05/15 02:56:34;;;;;;;;;;;;;;;10.41;93.89;101391.72;5058296;28;1101;-75
2023/05/15 02:58:59;;;;;;;;;;;;;;;10.40;93.82;101396.06;5063814;28;1299;-75
2023/05/15 03:01:25;;;;;;;;;;;;;;;10.35;94.51;101398.16;5059695;28;1963;-75
2023/05/15 03:03:50;;;;;;;;;;;;;;;10.28;95.38;101396.94;5053483;28;1301;-75
2023/05/15 03:06:17;;;;;;;;;;;;;;;10.29;95.85;101399.44;5047185;28;1246;-75
2023/05/15 03:08:42;;;;;;;;;;;;;;;10.21;95.84;101393.13;5042815;28;1339;-75
2023/05/15 03:11:08;;;;;;;;;;;;;;;10.17;96.04;101395.09;5066421;28;1387;-76
2023/05/15 03:13:33;;;;;;;;;;;;;;;10.18;95.63;101385.53;5067832;28;1416;-75
2023/05/15 03:15:58;;;;;;;;;;;;;;;10.18;96.34;101376.00;5064074;28;1393;-75
2023/05/15 03:18:23;;;;;;;;;;;;;;;10.13;95.92;101383.25;5067882;28;1161;-75
2023/05/15 03:20:49;;;;;;;;;;;;;;;10.09;96.22;101381.81;5067670;28;1315;-75
2023/05/15 03:23:15;;;;;;;;;;;;;;;10.11;96.79;101388.56;5049922;28;1976;-75
2023/05/15 03:25:40;;;;;;;;;;;;;;;10.11;96.74;101375.59;5065309;28;1177;-75
2023/05/15 03:28:05;;;;;;;;;;;;;;;10.11;97.02;101379.97;5069095;28;1328;-75
2023/05/15 03:30:30;;;;;;;;;;;;;;;10.03;97.33;101377.91;5046085;28;1214;-75
2023/05/15 03:32:56;;;;;;;;;;;;;;;10.05;97.32;101370.84;5050248;28;1323;-75
2023/05/15 03:35:21;;;;;;;;;;;;;;;10.04;96.63;101384.75;5058746;28;1298;-76
2023/05/15 03:37:47;;;;;;;;;;;;;;;10.00;97.94;101382.47;5067537;28;1244;-75
2023/05/15 03:40:12;;;;;;;;;;;;;;;9.98;97.42;101377.41;5062000;28;1414;-75
2023/05/15 03:42:37;;;;;;;;;;;;;;;9.97;97.56;101382.69;5055613;28;1898;-76
2023/05/15 03:45:03;;;;;;;;;;;;;;;9.96;95.97;101376.69;5064684;28;1300;-76
2023/05/15 03:47:28;;;;;;;;;;;;;;;9.97;97.22;101378.31;5046174;28;1307;-75
2023/05/15 03:49:53;;;;;;;;;;;;;;;9.98;96.98;101368.81;5045647;28;1260;-76
2023/05/15 03:52:18;;;;;;;;;;;;;;;10.01;96.84;101369.41;5047331;28;1170;-75
2023/05/15 03:54:44;;;;;;;;;;;;;;;9.97;97.40;101367.13;5066950;28;1210;-75
2023/05/15 03:57:09;;;;;;;;;;;;;;;9.99;96.70;101362.69;5067867;28;1272;-75
2023/05/15 03:59:34;;;;;;;;;;;;;;;9.97;98.29;101362.78;5064705;28;1413;-75
2023/05/15 04:01:59;;;;;;;;;;;;;;;9.95;97.62;101354.31;5060454;28;1901;-75
2023/05/15 04:04:24;;;;;;;;;;;;;;;9.98;97.23;101356.69;5063137;28;1184;-75
2023/05/15 04:06:50;;;;;;;;;;;;;;;9.99;97.52;101366.13;5063053;28;1154;-74
2023/05/15 04:09:15;;;;;;;;;;;;;;;10.01;96.71;101364.22;5057375;28;1128;-74
2023/05/15 04:11:40;;;;;;;;;;;;;;;10.01;96.36;101359.03;5062982;28;1214;-75
2023/05/15 04:14:06;;;;;;;;;;;;;;;10.00;97.54;101356.56;5060319;28;1312;-74
2023/05/15 04:16:31;;;;;;;;;;;;;;;10.01;96.50;101363.41;5065903;28;1491;-74
2023/05/15 04:18:56;;;;;;;;;;;;;;;9.98;96.75;101359.28;5068387;28;1356;-74
2023/05/15 04:21:21;;;;;;;;;;;;;;;9.98;96.37;101364.47;5067216;28;1898;-75
2023/05/15 04:23:46;;;;;;;;;;;;;;;10.03;97.05;101362.34;5062556;28;1225;-74
2023/05/15 04:26:12;;;;;;;;;;;;;;;10.02;97.35;101371.06;5059944;28;1189;-74
2023/05/15 04:28:37;;;;;;;;;;;;;;;10.04;96.61;101364.03;5058449;28;1096;-74
2023/05/15 04:31:02;;;;;;;;;;;;;;;10.07;97.44;101374.16;5063858;28;1420;-76
2023/05/15 04:33:27;;;;;;;;;;;;;;;10.05;96.91;101370.84;5049531;28;1431;-76
2023/05/15 04:35:53;;;;;;;;;;;;;;;10.05;97.65;101377.81;5059525;28;1479;-74
2023/05/15 04:38:18;;;;;;;;;;;;;;;9.98;97.92;101377.41;5059908;28;1295;-74
2023/05/15 04:40:43;;;;;;;;;;;;;;;9.91;98.27;101381.34;5066888;28;1045;-75
2023/05/15 04:43:09;;;;;;;;;;;;;;;9.79;99.10;101384.78;5066887;28;1901;-75
2023/05/15 04:45:34;;;;;;;;;;;;;;;9.67;98.77;101385.66;5060068;28;1114;-75
2023/05/15 04:47:59;;;;;;;;;;;;;;;9.65;100.00;101392.72;5066754;28;1272;-75
2023/05/15 04:50:25;;;;;;;;;;;;;;;9.60;100.00;101399.97;5065417;28;1150;-74
2023/05/15 04:52:50;;;;;;;;;;;;;;;9.53;100.00;101392.59;5044218;28;1299;-75
2023/05/15 04:55:15;;;;;;;;;;;;;;;9.47;100.00;101397.38;5058572;28;1146;-74
2023/05/15 04:57:40;;;;;;;;;;;;;;;9.42;100.00;101397.69;5061486;28;1165;-74
2023/05/15 05:00:10;;;;;;;;;;;;;;;9.40;100.00;101393.53;5056280;28;1251;-75
2023/05/15 05:02:36;;;;;;;;;;;;;;;9.33;100.00;101395.69;5057793;28;2008;-75
2023/05/15 05:05:01;;;;;;;;;;;;;;;9.34;100.00;101394.78;5066960;28;1145;-74
2023/05/15 05:07:26;;;;;;;;;;;;;;;9.37;100.00;101394.56;5060191;28;1327;-72
2023/05/15 05:09:51;;;;;;;;;;;;;;;9.36;100.00;101390.34;5066734;28;1247;-73
2023/05/15 05:12:16;;;;;;;;;;;;;;;9.40;100.00;101390.94;5065934;28;1212;-76
2023/05/15 05:14:43;;;;;;;;;;;;;;;9.38;100.00;101396.22;5050138;28;1212;-74
2023/05/15 05:17:08;;;;;;;;;;;;;;;9.37;100.00;101394.56;5065000;28;1092;-75
2023/05/15 05:19:33;;;;;;;;;;;;;;;9.40;100.00;101404.72;5065124;28;1204;-75
2023/05/15 05:22:03;;;;;;;;;;;;;;;9.35;100.00;101405.94;5068579;28;1901;-75
2023/05/15 05:24:28;;;;;;;;;;;;;;;9.34;100.00;101415.47;5070074;28;1064;-75
2023/05/15 05:26:54;;;;;;;;;;;;;;;9.40;100.00;101420.25;5065022;28;1228;-75
2023/05/15 05:29:19;;;;;;;;;;;;;;;9.36;100.00;101403.28;5067988;28;1177;-74
2023/05/15 05:31:45;;;;;;;;;;;;;;;9.37;100.00;101404.94;5069837;28;1217;-75
2023/05/15 05:34:10;;;;;;;;;;;;;;;9.35;100.00;101414.56;5062375;28;1510;-75
2023/05/15 05:36:35;;;;;;;;;;;;;;;9.36;100.00;101416.22;5043864;28;1211;-76
2023/05/15 05:39:01;;;;;;;;;;;;;;;9.38;100.00;101409.16;5069147;28;1649;-75
2023/05/15 05:41:26;;;;;;;;;;;;;;;9.48;100.00;101423.16;5069169;28;1898;-75
2023/05/15 05:43:51;;;;;;;;;;;;;;;9.51;100.00;101417.75;5070198;28;1105;-74
2023/05/15 05:46:17;;;;;;;;;;;;;;;9.48;100.00;101410.22;5066154;28;1045;-75
2023/05/15 05:48:42;;;;;;;;;;;;;;;9.46;100.00;101409.50;5064324;28;1408;-74
2023/05/15 05:51:07;;;;;;;;;;;;;;;9.45;100.00;101418.19;5063933;28;1476;-75
2023/05/15 05:53:32;;;;;;;;;;;;;;;9.48;100.00;101423.16;5066711;28;1130;-74
2023/05/15 05:55:57;;;;;;;;;;;;;;;9.47;100.00;101415.50;5068200;28;1197;-75
2023/05/15 05:58:23;;;;;;;;;;;;;;;9.44;100.00;101419.13;5052726;28;1167;-75
2023/05/15 06:00:48;;;;;;;;;;;;;;;9.47;100.00;101416.34;5037918;28;1413;-75
2023/05/15 06:03:14;;;;;;;;;;;;;;;9.50;100.00;101421.28;5063546;28;1892;-76
2023/05/15 06:05:39;;;;;;;;;;;;;;;9.56;100.00;101415.69;5047804;28;1290;-76
2023/05/15 06:08:05;;;;;;;;;;;;;;;9.62;100.00;101411.84;5057854;28;1232;-75
2023/05/15 06:10:30;;;;;;;;;;;;;;;9.68;100.00;101415.78;5058308;28;1276;-75
2023/05/15 06:12:55;;;;;;;;;;;;;;;9.68;100.00;101423.56;5064041;28;1285;-75
2023/05/15 06:15:21;;;;;;;;;;;;;;;9.67;99.65;101427.09;5046347;28;1188;-75
2023/05/15 06:17:46;;;;;;;;;;;;;;;9.68;99.82;101418.38;5064416;28;1194;-76
2023/05/15 06:20:11;;;;;;;;;;;;;;;9.73;99.46;101431.84;5056732;28;1349;-75
2023/05/15 06:22:37;;;;;;;;;;;;;;;9.76;99.12;101426.47;5069269;28;1898;-74
2023/05/15 06:25:06;;;;;;;;;;;;;;;9.82;99.11;101420.88;5061750;28;1287;-75
2023/05/15 06:27:31;;;;;;;;;;;;;;;9.87;98.93;101420.56;5067257;28;1321;-75
2023/05/15 06:29:57;;;;;;;;;;;;;;;9.94;99.05;101414.84;5061631;28;1241;-75
2023/05/15 06:32:22;;;;;;;;;;;;;;;10.07;98.61;101419.97;5062892;28;1411;-75
2023/05/15 06:34:47;;;;;;;;;;;;;;;10.11;98.76;101426.63;5058980;28;1257;-75
2023/05/15 06:37:12;;;;;;;;;;;;;;;10.19;98.79;101428.66;5068713;28;1201;-76
2023/05/15 06:39:38;;;;;;;;;;;;;;;10.27;98.63;101431.59;5044239;28;1477;-75
2023/05/15 06:42:03;;;;;;;;;;;;;;;10.30;98.68;101433.97;5069025;28;1897;-74
2023/05/15 06:44:31;;;;;;;;;;;;;;;10.37;98.55;101427.38;5067135;28;1052;-76
2023/05/15 06:46:56;;;;;;;;;;;;;;;10.47;98.30;101428.41;5069177;28;1263;-75
2023/05/15 06:49:22;;;;;;;;;;;;;;;10.54;97.76;101424.41;5062939;28;1221;-75
2023/05/15 06:51:48;;;;;;;;;;;;;;;10.60;98.01;101418.78;5068154;28;1144;-75
2023/05/15 06:54:13;;;;;;;;;;;;;;;10.69;98.45;101422.50;5054061;28;1285;-75
2023/05/15 06:56:38;;;;;;;;;;;;;;;10.75;96.84;101416.03;5065916;28;1034;-75
2023/05/15 06:59:03;;;;;;;;;;;;;;;10.81;98.22;101415.59;5065411;28;1105;-75
2023/05/15 07:01:29;;;;;;;;;;;;;;;10.79;95.44;101415.72;5048561;28;1894;-75
2023/05/15 07:03:54;;;;;;;;;;;;;;;10.75;94.80;101410.84;5058963;28;1156;-75
2023/05/15 07:06:20;;;;;;;;;;;;;;;10.66;94.57;101416.69;5063295;28;1314;-76
2023/05/15 07:08:45;;;;;;;;;;;;;;;10.67;94.52;101413.16;5067386;28;1248;-75
2023/05/15 07:11:10;;;;;;;;;;;;;;;10.69;94.81;101411.28;5065378;28;1245;-76
2023/05/15 07:13:35;;;;;;;;;;;;;;;10.78;95.44;101421.00;5064356;28;1193;-75
2023/05/15 07:16:01;;;;;;;;;;;;;;;10.82;95.64;101425.84;5057765;28;1201;-75
2023/05/15 07:18:26;;;;;;;;;;;;;;;10.93;95.38;101414.69;5056120;28;1315;-75
2023/05/15 07:20:52;;;;;;;;;;;;;;;11.06;94.08;101424.97;5067644;28;1350;-75
2023/05/15 07:23:17;;;;;;;;;;;;;;;11.11;94.70;101418.50;5064573;28;1898;-76
2023/05/15 07:25:42;;;;;;;;;;;;;;;11.14;91.56;101418.28;5059917;28;1443;-76
2023/05/15 07:28:07;;;;;;;;;;;;;;;11.23;93.32;101415.94;5060865;28;1201;-76
2023/05/15 07:30:32;;;;;;;;;;;;;;;11.37;94.11;101413.16;5066951;28;1284;-76
2023/05/15 07:32:58;;;;;;;;;;;;;;;11.52;94.26;101411.97;5063005;28;1761;-76
2023/05/15 07:35:23;;;;;;;;;;;;;;;11.65;94.08;101412.72;5058465;28;1206;-76
2023/05/15 07:37:49;;;;;;;;;;;;;;;11.72;92.60;101417.44;5061174;28;1330;-76
2023/05/15 07:40:14;;;;;;;;;;;;;;;11.80;92.15;101404.66;5067406;28;1435;-76
2023/05/15 07:42:39;;;;;;;;;;;;;;;11.86;91.98;101410.25;5067120;28;1910;-76
2023/05/15 07:45:05;;;;;;;;;;;;;;;11.87;92.09;101411.06;5069093;28;1316;-76
2023/05/15 07:47:31;;;;;;;;;;;;;;;11.93;91.60;101395.03;5035440;28;1204;-76
2023/05/15 07:49:56;;;;;;;;;;;;;;;11.95;91.51;101398.31;5056992;28;1216;-76
2023/05/15 07:52:21;;;;;;;;;;;;;;;12.06;92.24;101400.91;5064654;28;1165;-76
2023/05/15 07:54:46;;;;;;;;;;;;;;;12.23;91.86;101407.38;5060025;28;1098;-76
2023/05/15 07:57:11;;;;;;;;;;;;;;;12.40;91.71;101399.06;5041931;28;1302;-76
2023/05/15 07:59:37;;;;;;;;;;;;;;;12.44;91.54;101389.19;5036133;28;1440;-76
2023/05/15 08:02:02;;;;;;;;;;;;;;;12.58;91.27;101401.94;5048764;28;1906;-76
2023/05/15 08:04:27;;;;;;;;;;;;;;;12.81;90.55;101407.88;5047262;28;1372;-76
2023/05/15 08:06:52;;;;;;;;;;;;;;;12.77;87.76;101412.50;5043392;28;1309;-75
2023/05/15 08:09:18;;;;;;;;;;;;;;;12.76;86.71;101405.66;5067590;28;1601;-76
2023/05/15 08:11:43;;;;;;;;;;;;;;;12.73;88.13;101399.84;5066128;28;1573;-76
2023/05/15 08:14:08;;;;;;;;;;;;;;;12.80;89.17;101395.00;5042800;28;1440;-76
2023/05/15 08:16:34;;;;;;;;;;;;;;;12.96;89.14;101390.16;5060076;28;989;-76
2023/05/15 08:19:03;;;;;;;;;;;;;;;13.10;89.09;101402.06;5067980;28;1593;-76
2023/05/15 08:21:28;;;;;;;;;;;;;;;13.24;87.89;101399.97;5058941;28;1902;-76
2023/05/15 08:23:53;;;;;;;;;;;;;;;13.32;85.21;101396.75;5067250;28;1380;-76
2023/05/15 08:26:19;;;;;;;;;;;;;;;13.37;84.73;101398.97;5057173;28;1422;-76
2023/05/15 08:28:45;;;;;;;;;;;;;;;13.38;84.79;101395.41;5057740;28;1558;-76
2023/05/15 08:31:10;;;;;;;;;;;;;;;13.41;83.59;101395.13;5062926;28;1561;-76
2023/05/15 08:33:35;;;;;;;;;;;;;;;13.46;84.50;101392.97;5066074;28;1197;-76
2023/05/15 08:36:00;;;;;;;;;;;;;;;13.63;85.56;101394.97;5057169;28;1210;-77
2023/05/15 08:38:25;;;;;;;;;;;;;;;13.85;86.23;101395.72;5048749;28;1316;-76
2023/05/15 08:40:53;;;;;;;;;;;;;;;14.00;86.23;101399.63;5034449;28;1227;-76
2023/05/15 08:43:19;;;;;;;;;;;;;;;14.16;85.27;101412.13;5058586;28;1957;-75
2023/05/15 08:45:45;;;;;;;;;;;;;;;14.16;84.98;101397.31;5061132;28;1178;-76
2023/05/15 08:48:15;;;;;;;;;;;;;;;14.24;85.10;101405.31;5047799;28;1516;-76
2023/05/15 08:50:42;;;;;;;;;;;;;;;14.33;83.01;101404.47;5072816;28;993;-76
2023/05/15 08:53:08;;;;;;;;;;;;;;;14.40;82.87;101410.00;5073227;28;1087;-76
2023/05/15 08:55:33;;;;;;;;;;;;;;;14.44;83.12;101402.72;5073471;28;1163;-76
2023/05/15 08:57:59;;;;;;;;;;;;;;;14.55;82.92;101410.44;5055775;28;1254;-76
2023/05/15 09:00:25;;;;;;;;;;;;;;;14.60;81.77;101400.41;5072342;28;1060;-76
2023/05/15 09:02:52;;;;;;;;;;;;;;;14.53;82.14;101405.38;5064263;28;1890;-77
2023/05/15 09:05:17;;;;;;;;;;;;;;;14.65;82.04;101402.63;5073204;28;1101;-76
2023/05/15 09:07:43;;;;;;;;;;;;;;;14.72;82.46;101407.16;5068184;28;1205;-76
2023/05/15 09:10:09;;;;;;;;;;;;;;;14.84;81.88;101403.44;5069040;28;1150;-76
2023/05/15 09:12:35;;;;;;;;;;;;;;;14.80;80.74;101407.31;5070906;28;1469;-75
2023/05/15 09:15:07;;;;;;;;;;;;;;;14.77;81.07;101397.13;5062160;28;1176;-75
2023/05/15 09:17:32;;;;;;;;;;;;;;;14.83;80.81;101407.00;5057441;28;1355;-75
2023/05/15 09:19:57;;;;;;;;;;;;;;;14.92;80.08;101399.31;5055154;28;1325;-75
2023/05/15 09:22:24;;;;;;;;;;;;;;;14.94;79.37;101402.59;5073054;28;1945;-76
2023/05/15 09:24:51;;;;;;;;;;;;;;;14.90;78.06;101401.22;5071573;28;1003;-76
2023/05/15 09:27:17;;;;;;;;;;;;;;;14.78;78.26;101398.75;5049227;28;1595;-76
2023/05/15 09:29:42;;;;;;;;;;;;;;;14.82;77.76;101399.31;5071425;28;1241;-76
2023/05/15 09:32:08;;;;;;;;;;;;;;;14.81;77.73;101401.09;5048782;28;1439;-76
2023/05/15 09:34:34;;;;;;;;;;;;;;;14.85;77.04;101405.09;5066270;28;1674;-76
2023/05/15 09:37:01;;;;;;;;;;;;;;;14.71;77.22;101405.50;5073835;28;1036;-77
2023/05/15 09:39:26;;;;;;;;;;;;;;;14.67;77.82;101401.50;5045848;28;1247;-76
2023/05/15 09:41:52;;;;;;;;;;;;;;;14.74;77.48;101402.63;5069393;28;1945;-76
2023/05/15 09:44:24;;;;;;;;;;;;;;;14.70;77.38;101406.47;5069739;28;1221;-77
2023/05/15 09:46:50;;;;;;;;;;;;;;;14.64;75.96;101396.59;5069363;28;1066;-76
2023/05/15 09:49:15;;;;;;;;;;;;;;;14.55;76.73;101405.22;5072794;28;1073;-77
2023/05/15 09:51:42;;;;;;;;;;;;;;;14.55;78.65;101398.22;5067716;28;1096;-77
2023/05/15 09:54:12;;;;;;;;;;;;;;;14.71;78.41;101408.13;5042194;28;1585;-77
2023/05/15 09:56:39;;;;;;;;;;;;;;;14.85;77.63;101410.31;5065611;28;1317;-77
2023/05/15 09:59:05;;;;;;;;;;;;;;;14.86;79.37;101409.34;5070470;28;1267;-77
2023/05/15 10:01:30;;;;;;;;;;;;;;;14.98;79.12;101403.97;5051931;28;1901;-77
2023/05/15 10:03:58;;;;;;;;;;;;;;;15.09;78.25;101401.22;5070605;28;1592;-76
2023/05/15 10:06:24;;;;;;;;;;;;;;;15.15;77.75;101405.88;5050421;28;1495;-76
2023/05/15 10:08:53;;;;;;;;;;;;;;;15.03;78.79;101399.16;5058544;28;1252;-77
2023/05/15 10:11:18;;;;;;;;;;;;;;;15.09;78.53;101406.44;5065286;28;1110;-77
2023/05/15 10:13:44;;;;;;;;;;;;;;;15.08;79.28;101404.78;5062335;28;1314;-77
2023/05/15 10:16:10;;;;;;;;;;;;;;;15.13;78.63;101407.78;5070396;28;1100;-76
2023/05/15 10:18:37;;;;;;;;;;;;;;;15.12;78.67;101413.97;5054258;28;1184;-77
2023/05/15 10:21:03;;;;;;;;;;;;;;;15.10;78.22;101405.47;5063833;28;1087;-76
2023/05/15 10:23:29;;;;;;;;;;;;;;;15.03;79.42;101415.66;5064716;28;1964;-77
2023/05/15 10:26:01;;;;;;;;;;;;;;;15.11;79.10;101414.97;5055768;28;1118;-76
2023/05/15 10:28:27;;;;;;;;;;;;;;;15.06;79.72;101412.75;5061407;28;1043;-77
2023/05/15 10:30:53;;;;;;;;;;;;;;;15.07;79.53;101414.41;5069032;28;1084;-77
2023/05/15 10:33:19;;;;;;;;;;;;;;;15.14;78.46;101419.91;5068724;28;1232;-77
2023/05/15 10:35:45;;;;;;;;;;;;;;;15.01;79.32;101414.13;5063156;28;1187;-77
2023/05/15 10:38:11;;;;;;;;;;;;;;;15.02;78.94;101415.78;5063946;28;1590;-77
2023/05/15 10:40:38;;;;;;;;;;;;;;;14.99;78.19;101416.06;5067399;28;1323;-77
2023/05/15 10:43:03;;;;;;;;;;;;;;;14.82;77.72;101421.03;5063656;28;1898;-76
2023/05/15 10:45:29;;;;;;;;;;;;;;;14.70;78.65;101416.91;5066628;28;1236;-77
2023/05/15 10:47:55;;;;;;;;;;;;;;;14.70;78.85;101416.91;5066766;28;1147;-75
2023/05/15 10:50:20;;;;;;;;;;;;;;;14.63;80.26;101415.81;5061428;28;1144;-76
2023/05/15 10:52:49;;;;;;;;;;;;;;;14.65;79.27;101419.09;5063329;28;1137;-76
2023/05/15 10:55:15;;;;;;;;;;;;;;;14.56;80.50;101409.47;5066363;28;1503;-77
2023/05/15 10:57:41;;;;;;;;;;;;;;;14.56;80.98;101407.69;5069269;28;1163;-77
2023/05/15 11:00:21;;;;;;;;;;;;;;;14.68;80.69;101404.94;5065801;28;999;-76
2023/05/15 11:02:46;;;;;;;;;;;;;;;14.66;80.87;101410.31;5063382;28;2000;-76
2023/05/15 11:05:13;;;;;;;;;;;;;;;14.69;80.82;101410.06;5067362;28;1121;-76
2023/05/15 11:07:38;;;;;;;;;;;;;;;14.57;80.97;101411.16;5064711;28;1284;-76
2023/05/15 11:10:23;;;;;;;;;;;;;;;14.56;81.54;101412.09;5068687;28;1372;-75
2023/05/15 11:12:56;;;;;;;;;;;;;;;14.59;81.27;101409.22;5047850;28;1219;-76
2023/05/15 11:15:21;;;;;;;;;;;;;;;14.60;80.96;101410.88;5041785;28;1176;-76
2023/05/15 11:18:03;;;;;;;;;;;;;;;14.41;81.37;101416.03;5060915;28;1197;-77
2023/05/15 11:20:38;;;;;;;;;;;;;;;14.43;81.66;101408.91;5056588;28;1081;-76
2023/05/15 11:23:04;;;;;;;;;;;;;;;14.44;81.20;101407.94;5062008;28;1963;-76
2023/05/15 11:25:32;;;;;;;;;;;;;;;14.38;81.95;101411.09;5043583;28;1283;-77
2023/05/15 11:27:57;;;;;;;;;;;;;;;14.48;81.53;101411.97;5063173;28;1129;-77
2023/05/15 11:30:33;;;;;;;;;;;;;;;14.37;82.08;101412.03;5069401;28;1148;-76
2023/05/15 11:32:59;;;;;;;;;;;;;;;14.44;81.75;101410.53;5065278;28;1284;-76
2023/05/15 11:35:27;;;;;;;;;;;;;;;14.57;81.48;101411.16;5058939;28;1514;-76
2023/05/15 11:37:54;;;;;;;;;;;;;;;14.47;82.13;101411.13;5058081;28;1241;-76
2023/05/15 11:40:23;;;;;;;;;;;;;;;14.44;82.14;101410.53;5066219;28;1372;-76
2023/05/15 11:42:59;;;;;;;;;;;;;;;14.45;82.11;101415.66;5066184;28;1894;-76
2023/05/15 11:45:25;;;;;;;;;;;;;;;14.35;82.12;101407.78;5068332;28;986;-76
2023/05/15 11:47:50;;;;;;;;;;;;;;;14.30;82.75;101404.75;5048015;28;1284;-76
2023/05/15 11:50:15;;;;;;;;;;;;;;;14.31;82.77;101414.22;5060423;28;1376;-76
2023/05/15 11:52:41;;;;;;;;;;;;;;;14.29;83.01;101417.94;5065870;28;1133;-76
2023/05/15 11:55:07;;;;;;;;;;;;;;;14.31;83.61;101424.66;5042014;28;1474;-76
2023/05/15 11:57:32;;;;;;;;;;;;;;;14.29;83.28;101418.78;5064484;28;1291;-76
2023/05/15 11:59:57;;;;;;;;;;;;;;;14.29;82.86;101418.78;5047567;28;1294;-76
2023/05/15 12:02:23;;;;;;;;;;;;;;;14.20;83.24;101419.56;5065897;28;1969;-76
2023/05/15 12:04:49;;;;;;;;;;;;;;;14.20;83.37;101422.19;5048107;28;1380;-76
2023/05/15 12:07:15;;;;;;;;;;;;;;;14.24;82.85;101420.13;5067615;28;1486;-76
2023/05/15 12:09:41;;;;;;;;;;;;;;;14.04;83.53;101416.63;5064291;28;1177;-76
2023/05/15 12:12:11;;;;;;;;;;;;;;;14.14;83.82;101417.50;5060570;28;1134;-75
2023/05/15 12:14:38;;;;;;;;;;;;;;;14.00;84.18;101423.09;5061051;28;1157;-77
2023/05/15 12:17:03;;;;;;;;;;;;;;;14.05;84.23;101415.72;5064277;28;1096;-76
2023/05/15 12:19:38;;;;;;;;;;;;;;;13.99;84.44;101411.00;5055799;28;1204;-76
2023/05/15 12:22:03;;;;;;;;;;;;;;;13.94;85.25;101418.41;5032680;28;1957;-76
2023/05/15 12:24:28;;;;;;;;;;;;;;;13.92;85.15;101415.09;5056079;28;1137;-76
2023/05/15 12:26:54;;;;;;;;;;;;;;;13.87;85.35;101422.47;5045180;28;1516;-76
2023/05/15 12:29:19;;;;;;;;;;;;;;;13.90;86.20;101417.03;5061602;28;1229;-76
2023/05/15 12:31:44;;;;;;;;;;;;;;;13.92;85.66;101415.09;5066647;28;1562;-76
2023/05/15 12:34:10;;;;;;;;;;;;;;;13.95;86.48;101410.44;5063069;28;1389;-77
2023/05/15 12:36:35;;;;;;;;;;;;;;;14.03;86.12;101412.38;5049853;28;1313;-76
2023/05/15 12:39:05;;;;;;;;;;;;;;;14.16;85.85;101412.97;5055355;28;1157;-76
2023/05/15 12:41:30;;;;;;;;;;;;;;;14.22;85.56;101396.78;5060590;28;1909;-76
2023/05/15 12:43:55;;;;;;;;;;;;;;;14.38;83.94;101398.03;5063509;28;1394;-76